createdAt,value
2019-01-30T00:04:16.018Z,8.00
2019-01-30T00:09:26.679Z,8.07
2019-01-30T00:14:33.225Z,9.10
2019-01-30T00:19:39.542Z,8.90
2019-01-30T00:24:47.079Z,8.80
2019-01-30T00:30:03.668Z,9.70
2019-01-30T00:35:02.387Z,9.70
2019-01-30T00:40:18.235Z,8.70
2019-01-30T00:45:25.668Z,9.63
2019-01-30T00:50:32.628Z,9.33
2019-01-30T00:55:39.196Z,9.43
2019-01-30T01:00:45.428Z,8.97
2019-01-30T01:05:51.970Z,9.40
2019-01-30T01:10:58.666Z,9.03
2019-01-30T01:16:06.608Z,8.80
2019-01-30T01:21:13.492Z,9.27
2019-01-30T01:26:20.804Z,9.30
2019-01-30T01:31:27.372Z,11.00
2019-01-30T01:36:35.190Z,9.67
2019-01-30T01:41:41.570Z,10.80
2019-01-30T01:46:48.683Z,10.73
2019-01-30T01:51:55.534Z,10.13
2019-01-30T01:57:02.188Z,9.07
2019-01-30T02:02:08.608Z,9.83
2019-01-30T02:07:15.095Z,10.40
2019-01-30T02:12:22.089Z,10.67
2019-01-30T02:17:29.332Z,9.73
2019-01-30T02:22:36.634Z,10.47
2019-01-30T02:27:46.880Z,9.03
2019-01-30T02:32:54.721Z,9.30
2019-01-30T02:38:02.263Z,9.17
2019-01-30T02:43:08.991Z,8.97
2019-01-30T02:48:16.981Z,9.50
2019-01-30T02:53:23.991Z,9.07
2019-01-30T02:58:32.392Z,8.83
2019-01-30T03:03:40.939Z,9.23
2019-01-30T03:08:46.881Z,9.23
2019-01-30T03:13:53.422Z,9.83
2019-01-30T03:19:00.135Z,9.67
2019-01-30T03:24:06.774Z,10.43
2019-01-30T03:29:13.496Z,9.63
2019-01-30T03:34:20.123Z,9.70
2019-01-30T03:39:26.717Z,9.50
2019-01-30T03:44:35.462Z,8.10
2019-01-30T03:49:42.602Z,8.70
2019-01-30T03:54:50.008Z,8.27
2019-01-30T03:59:57.122Z,8.53
2019-01-30T04:05:05.339Z,7.70
2019-01-30T04:10:21.237Z,8.40
2019-01-30T04:15:29.209Z,8.57
2019-01-30T04:20:37.403Z,8.00
2019-01-30T04:25:45.131Z,8.23
2019-01-30T04:30:53.319Z,8.37
2019-01-30T04:36:00.497Z,9.00
2019-01-30T04:41:07.802Z,8.83
2019-01-30T04:46:14.847Z,7.73
2019-01-30T04:51:22.168Z,8.13
2019-01-30T04:56:29.601Z,8.30
2019-01-30T05:01:36.792Z,9.20
2019-01-30T05:06:45.242Z,7.90
2019-01-30T05:11:52.882Z,8.80
2019-01-30T05:17:00.612Z,9.17
2019-01-30T05:22:09.586Z,9.13
2019-01-30T05:27:16.874Z,9.37
2019-01-30T05:32:24.137Z,8.87
2019-01-30T05:37:31.123Z,8.70
2019-01-30T05:42:38.622Z,8.57
2019-01-30T05:47:45.928Z,9.87
2019-01-30T05:52:53.947Z,8.97
2019-01-30T05:58:05.271Z,8.63
2019-01-30T06:03:12.824Z,9.00
2019-01-30T06:08:20.510Z,9.37
2019-01-30T06:13:27.323Z,9.23
2019-01-30T06:18:34.757Z,9.50
2019-01-30T06:23:42.038Z,8.90
2019-01-30T06:28:49.355Z,9.30
2019-01-30T06:33:57.885Z,8.67
2019-01-30T06:39:07.179Z,9.67
2019-01-30T06:44:14.147Z,8.77
2019-01-30T06:49:23.436Z,9.27
2019-01-30T06:54:31.039Z,9.93
2019-01-30T06:59:38.950Z,9.27
2019-01-30T07:04:45.488Z,8.80
2019-01-30T07:09:52.210Z,8.80
2019-01-30T07:15:00.679Z,8.10
2019-01-30T07:20:13.331Z,8.53
2019-01-30T07:25:23.555Z,8.33
2019-01-30T07:30:34.119Z,8.13
2019-01-30T07:35:42.369Z,7.73
2019-01-30T07:40:50.379Z,8.20
2019-01-30T07:45:58.033Z,9.50
2019-01-30T07:51:06.249Z,8.30
2019-01-30T07:56:14.245Z,9.87
2019-01-30T08:01:22.087Z,9.03
2019-01-30T08:06:30.046Z,9.10
2019-01-30T08:11:37.795Z,10.70
2019-01-30T08:16:47.978Z,10.53
2019-01-30T08:21:54.999Z,9.83
2019-01-30T08:27:03.942Z,11.47
2019-01-30T08:32:11.744Z,10.33
2019-01-30T08:37:18.996Z,11.57
2019-01-30T08:42:26.029Z,10.37
2019-01-30T08:47:35.122Z,11.67
2019-01-30T08:52:43.174Z,11.23
2019-01-30T08:57:50.951Z,10.37
2019-01-30T09:02:58.286Z,11.27
2019-01-30T09:08:05.752Z,10.67
2019-01-30T09:13:12.398Z,9.73
2019-01-30T09:18:19.646Z,10.40
2019-01-30T09:23:28.277Z,9.77
2019-01-30T09:28:34.844Z,10.37
2019-01-30T09:33:41.333Z,10.30
2019-01-30T09:38:48.758Z,10.27
2019-01-30T09:43:55.588Z,9.93
2019-01-30T09:49:02.983Z,11.83
2019-01-30T09:54:10.112Z,9.83
2019-01-30T09:59:17.177Z,11.43
2019-01-30T10:04:25.487Z,12.17
2019-01-30T10:09:38.146Z,10.60
2019-01-30T10:14:49.588Z,11.30
2019-01-30T10:19:58.081Z,10.80
2019-01-30T10:25:10.599Z,11.30
2019-01-30T10:30:25.484Z,10.30
2019-01-30T10:35:35.255Z,10.93
2019-01-30T10:40:43.888Z,10.43
2019-01-30T10:45:52.087Z,10.47
2019-01-30T10:51:00.148Z,9.97
2019-01-30T10:56:07.329Z,10.03
2019-01-30T11:01:15.115Z,9.80
2019-01-30T11:06:23.640Z,10.10
2019-01-30T11:11:30.431Z,10.87
2019-01-30T11:16:39.017Z,9.53
2019-01-30T11:21:46.113Z,8.93
2019-01-30T11:26:53.686Z,8.13
2019-01-30T11:32:01.131Z,8.00
2019-01-30T11:37:09.140Z,7.80
2019-01-30T11:42:17.030Z,8.33
2019-01-30T11:47:25.689Z,7.90
2019-01-30T11:52:32.853Z,8.73
2019-01-30T11:57:40.807Z,7.83
2019-01-30T12:02:50.482Z,9.27
2019-01-30T12:07:59.981Z,9.07
2019-01-30T12:13:08.399Z,9.43
2019-01-30T12:18:16.012Z,10.23
2019-01-30T12:23:23.831Z,10.40
2019-01-30T12:28:33.731Z,10.13
2019-01-30T12:33:42.697Z,9.50
2019-01-30T12:38:50.514Z,9.53
2019-01-30T12:43:58.933Z,9.33
2019-01-30T12:49:06.801Z,9.00
2019-01-30T12:54:14.418Z,10.27
2019-01-30T12:59:21.849Z,9.87
2019-01-30T13:04:38.889Z,10.70
2019-01-30T13:09:43.233Z,11.70
2019-01-30T13:14:51.373Z,10.90
2019-01-30T13:19:57.712Z,11.63
2019-01-30T13:25:04.728Z,12.50
2019-01-30T13:30:14.196Z,12.90
2019-01-30T13:35:21.929Z,12.97
2019-01-30T13:40:31.270Z,14.13
2019-01-30T13:45:37.697Z,13.47
2019-01-30T13:50:43.980Z,14.57
2019-01-30T13:55:50.972Z,14.07
2019-01-30T14:00:57.866Z,14.50
2019-01-30T14:06:04.674Z,13.63
2019-01-30T14:11:11.855Z,14.00
2019-01-30T14:16:17.915Z,13.27
2019-01-30T14:21:23.543Z,13.33
2019-01-30T14:26:29.914Z,13.10
2019-01-30T14:31:36.563Z,13.40
2019-01-30T14:36:43.398Z,14.20
2019-01-30T14:41:49.803Z,12.67
2019-01-30T14:46:58.359Z,14.23
2019-01-30T14:52:04.389Z,12.37
2019-01-30T14:57:10.865Z,12.87
2019-01-30T15:02:17.380Z,12.03
2019-01-30T15:07:29.068Z,12.47
2019-01-30T15:12:34.431Z,11.90
2019-01-30T15:17:41.574Z,12.40
2019-01-30T15:22:47.663Z,12.60
2019-01-30T15:27:54.473Z,13.30
2019-01-30T15:33:01.057Z,12.77
2019-01-30T15:38:09.148Z,12.23
2019-01-30T15:43:16.548Z,25.57
2019-01-30T15:48:24.009Z,75.90
2019-01-30T15:53:29.695Z,12.83
2019-01-30T15:58:35.974Z,12.37
2019-01-30T16:03:42.619Z,13.77
2019-01-30T16:08:48.575Z,12.53
2019-01-30T16:13:57.355Z,11.13
2019-01-30T16:19:04.410Z,10.93
2019-01-30T16:24:11.023Z,11.50
2019-01-30T16:29:16.653Z,11.20
2019-01-30T16:34:24.718Z,11.77
2019-01-30T16:39:30.280Z,10.87
2019-01-30T16:44:36.806Z,10.27
2019-01-30T16:49:44.723Z,10.33
2019-01-30T16:54:52.048Z,10.53
2019-01-30T16:59:58.560Z,35.68
2019-01-30T17:05:08.480Z,34.67
2019-01-30T17:10:16.795Z,11.23
2019-01-30T17:15:31.853Z,10.23
2019-01-30T17:20:41.112Z,10.37
2019-01-30T17:25:47.525Z,10.73
2019-01-30T17:30:56.553Z,11.50
2019-01-30T17:36:02.429Z,10.53
2019-01-30T17:41:08.344Z,10.97
2019-01-30T17:46:13.964Z,10.50
2019-01-30T17:51:20.580Z,11.43
2019-01-30T17:56:26.557Z,11.30
2019-01-30T18:01:34.847Z,12.73
2019-01-30T18:06:41.309Z,11.60
2019-01-30T18:11:48.259Z,11.47
2019-01-30T18:16:54.445Z,11.50
2019-01-30T18:22:01.324Z,12.30
2019-01-30T18:27:07.343Z,12.13
2019-01-30T18:32:13.558Z,12.80
2019-01-30T18:37:19.702Z,13.60
2019-01-30T18:42:25.886Z,13.57
2019-01-30T18:47:32.213Z,13.37
2019-01-30T18:52:38.690Z,12.50
2019-01-30T18:57:45.584Z,13.30
2019-01-30T19:02:51.761Z,13.67
2019-01-30T19:07:57.672Z,15.10
2019-01-30T19:13:04.211Z,14.27
2019-01-30T19:18:11.401Z,14.03
2019-01-30T19:23:18.250Z,16.37
2019-01-30T19:28:25.361Z,15.83
2019-01-30T19:33:33.126Z,15.43
2019-01-30T19:38:40.758Z,15.93
2019-01-30T19:43:46.798Z,16.90
2019-01-30T19:48:52.855Z,17.40
2019-01-30T19:53:58.518Z,17.63
2019-01-30T19:59:04.263Z,18.10
2019-01-30T20:04:09.843Z,20.10
2019-01-30T20:09:15.762Z,19.00
2019-01-30T20:14:21.825Z,20.13
2019-01-30T20:19:27.977Z,21.00
2019-01-30T20:24:34.982Z,21.03
2019-01-30T20:29:40.935Z,21.67
2019-01-30T20:34:47.091Z,20.37
2019-01-30T20:39:53.155Z,21.93
2019-01-30T20:44:59.383Z,21.30
2019-01-30T20:50:08.433Z,23.20
2019-01-30T20:55:16.862Z,28.60
2019-01-30T21:00:25.977Z,23.47
2019-01-30T21:05:31.979Z,23.90
2019-01-30T21:10:40.005Z,23.23
2019-01-30T21:15:46.328Z,23.60
2019-01-30T21:20:51.933Z,23.60
2019-01-30T21:25:58.240Z,24.97
2019-01-30T21:31:03.814Z,24.87
2019-01-30T21:36:09.667Z,22.60
2019-01-30T21:41:15.222Z,24.63
2019-01-30T21:46:21.161Z,25.60
2019-01-30T21:51:28.593Z,24.53
2019-01-30T21:56:34.506Z,45.40
2019-01-30T22:01:41.269Z,24.77
2019-01-30T22:06:47.213Z,24.93
2019-01-30T22:11:54.763Z,25.73
2019-01-30T22:17:00.723Z,26.87
2019-01-30T22:22:06.437Z,26.47
2019-01-30T22:27:13.225Z,27.77
2019-01-30T22:32:18.957Z,24.93
2019-01-30T22:37:24.969Z,25.33
2019-01-30T22:42:32.034Z,27.90
2019-01-30T22:47:37.619Z,26.87
2019-01-30T22:52:43.907Z,27.63
2019-01-30T22:57:51.111Z,71.77
2019-01-30T23:02:57.299Z,35.03
2019-01-30T23:08:03.461Z,26.03
2019-01-30T23:13:12.183Z,27.03
2019-01-30T23:18:41.857Z,27.63
2019-01-30T23:23:59.697Z,27.03
2019-01-30T23:29:34.343Z,27.60
2019-01-30T23:34:58.604Z,27.67
2019-01-30T23:40:19.336Z,28.97
2019-01-30T23:45:35.354Z,28.00
2019-01-30T23:51:20.033Z,27.03
2019-01-30T23:56:35.203Z,28.40
